Time;durP1;ratioP1;P1;durP2;ratioP2;P2;SDS_P1;SDS_P2;PMS_P1;PMS_P2;Temp;Humidity;BMP_temperature;BMP_pressure;BME280_temperature;BME280_humidity;BME280_pressure;Samples;Min_cycle;Max_cycle;Signal;HPM_P1;HPM_P2
2022/03/15 00:00:20;;;;;;;;;;;;;;;1.09;58.77;101705.22;5071833;28;19908;-36
2022/03/15 00:02:46;;;;;;;;;;;;;;;0.99;59.71;101698.88;5072102;28;19955;-36
2022/03/15 00:05:11;;;;;;;;;;;;;;;1.00;59.76;101705.78;5072096;28;20300;-36
2022/03/15 00:07:36;;;;;;;;;;;;;;;0.91;60.62;101708.97;5071958;28;19937;-35
2022/03/15 00:10:03;;;;;;;;;;;;;;;0.86;60.57;101703.19;5072053;28;19915;-36
2022/03/15 00:12:29;;;;;;;;;;;;;;;0.85;61.56;101699.69;5071938;28;20371;-36
2022/03/15 00:14:55;;;;;;;;;;;;;;;0.83;61.15;101700.72;5071904;28;19908;-36
2022/03/15 00:17:20;;;;;;;;;;;;;;;0.87;61.18;101703.06;5071508;28;19919;-37
2022/03/15 00:19:45;;;;;;;;;;;;;;;0.80;61.32;101698.28;5071562;28;19934;-37
2022/03/15 00:22:11;;;;;;;;;;;;;;;0.73;61.99;101690.78;5072085;28;19920;-36
2022/03/15 00:24:37;;;;;;;;;;;;;;;0.67;62.38;101695.56;5051909;28;19939;-36
2022/03/15 00:27:03;;;;;;;;;;;;;;;0.70;62.76;101692.75;5033841;28;19932;-36
2022/03/15 00:29:29;;;;;;;;;;;;;;;1.02;62.56;101688.19;5051666;28;20337;-36
2022/03/15 00:31:54;;;;;;;;;;;;;;;0.82;62.82;101692.03;5051695;28;19995;-36
2022/03/15 00:34:20;;;;;;;;;;;;;;;0.78;62.53;101694.00;5051559;28;19959;-36
2022/03/15 00:36:45;;;;;;;;;;;;;;;0.78;63.00;101685.25;5051474;28;20351;-36
2022/03/15 00:39:11;;;;;;;;;;;;;;;0.97;63.27;101696.34;5051774;28;19908;-36
2022/03/15 00:41:37;;;;;;;;;;;;;;;1.04;62.80;101694.16;5051344;28;19921;-37
2022/03/15 00:44:02;;;;;;;;;;;;;;;0.89;62.93;101693.31;5050940;28;19913;-37
2022/03/15 00:46:27;;;;;;;;;;;;;;;0.88;63.85;101698.69;5051663;28;19908;-40
2022/03/15 00:48:53;;;;;;;;;;;;;;;0.87;64.25;101704.84;5051630;28;20368;-37
2022/03/15 00:51:18;;;;;;;;;;;;;;;0.93;64.52;101699.22;5051567;28;20356;-42
2022/03/15 00:53:43;;;;;;;;;;;;;;;0.89;64.40;101690.69;5033607;28;19909;-36
2022/03/15 00:56:09;;;;;;;;;;;;;;;0.91;63.88;101691.44;5051073;28;20291;-35
2022/03/15 00:58:34;;;;;;;;;;;;;;;0.71;63.85;101686.59;5051142;28;19935;-36
2022/03/15 01:00:59;;;;;;;;;;;;;;;0.82;64.46;101685.91;5051435;28;19913;-40
2022/03/15 01:03:25;;;;;;;;;;;;;;;0.67;64.41;101683.31;5051186;28;19958;-36
2022/03/15 01:05:50;;;;;;;;;;;;;;;0.82;63.96;101686.78;5051099;28;19997;-37
2022/03/15 01:08:16;;;;;;;;;;;;;;;0.82;64.34;101688.53;5051224;28;19909;-37
2022/03/15 01:10:41;;;;;;;;;;;;;;;0.75;64.09;101675.81;5051452;28;20096;-37
2022/03/15 01:13:07;;;;;;;;;;;;;;;0.60;65.01;101676.75;5051013;28;19912;-35
2022/03/15 01:15:39;;;;;;;;;;;;;;;0.85;64.24;101677.88;5050901;28;19923;-37
2022/03/15 01:18:04;;;;;;;;;;;;;;;0.67;64.67;101678.06;5050381;28;19913;-36
2022/03/15 01:20:30;;;;;;;;;;;;;;;0.46;64.88;101677.56;5050459;28;20003;-36
2022/03/15 01:22:55;;;;;;;;;;;;;;;0.59;63.87;101667.19;5050356;28;19999;-36
2022/03/15 01:25:20;;;;;;;;;;;;;;;0.62;63.58;101663.56;5050412;28;19996;-36
2022/03/15 01:27:47;;;;;;;;;;;;;;;0.63;64.49;101663.47;5050439;28;19927;-36
2022/03/15 01:30:12;;;;;;;;;;;;;;;0.70;64.57;101662.13;5050485;28;19908;-36
2022/03/15 01:32:37;;;;;;;;;;;;;;;0.83;64.77;101661.41;5050679;28;19909;-36
2022/03/15 01:35:04;;;;;;;;;;;;;;;0.82;63.92;101659.72;5050795;28;19919;-37
2022/03/15 01:37:29;;;;;;;;;;;;;;;0.68;64.85;101655.31;5050718;28;19920;-36
2022/03/15 01:39:55;;;;;;;;;;;;;;;0.50;64.09;101654.66;5050381;28;19908;-36
2022/03/15 01:42:20;;;;;;;;;;;;;;;0.46;65.70;101653.13;5050719;28;19958;-36
2022/03/15 01:44:46;;;;;;;;;;;;;;;0.35;65.40;101649.38;5050887;28;19912;-36
2022/03/15 01:47:12;;;;;;;;;;;;;;;0.46;65.48;101645.25;5050493;28;20365;-36
2022/03/15 01:49:37;;;;;;;;;;;;;;;0.28;66.11;101647.22;5050613;28;19912;-36
2022/03/15 01:52:03;;;;;;;;;;;;;;;0.37;66.33;101657.16;5070392;28;19908;-36
2022/03/15 01:54:28;;;;;;;;;;;;;;;0.44;65.35;101649.75;5070988;28;19915;-36
2022/03/15 01:56:53;;;;;;;;;;;;;;;0.46;66.26;101642.66;5074477;28;19912;-36
2022/03/15 01:59:19;;;;;;;;;;;;;;;0.28;66.49;101641.97;5074470;28;20396;-39
2022/03/15 02:01:46;;;;;;;;;;;;;;;0.24;66.45;101641.31;5074534;28;19930;-37
2022/03/15 02:04:11;;;;;;;;;;;;;;;0.13;66.94;101641.09;5074251;28;19915;-37
2022/03/15 02:06:38;;;;;;;;;;;;;;;0.23;66.74;101641.38;5074774;28;19912;-37
2022/03/15 02:09:10;;;;;;;;;;;;;;;0.13;66.61;101644.56;5074838;28;19912;-37
2022/03/15 02:11:36;;;;;;;;;;;;;;;-0.03;67.30;101647.22;5074624;28;20372;-37
2022/03/15 02:14:02;;;;;;;;;;;;;;;0.20;66.42;101652.91;5074610;28;19908;-37
2022/03/15 02:16:27;;;;;;;;;;;;;;;0.23;66.90;101659.72;5074234;28;19912;-37
2022/03/15 02:18:53;;;;;;;;;;;;;;;0.22;66.47;101660.66;5074357;28;19912;-37
2022/03/15 02:21:18;;;;;;;;;;;;;;;0.14;66.34;101661.13;5074666;28;20003;-37
2022/03/15 02:23:43;;;;;;;;;;;;;;;-0.09;67.53;101662.44;5062193;28;19921;-37
2022/03/15 02:26:09;;;;;;;;;;;;;;;0.10;67.42;101673.53;5054231;28;19923;-37
2022/03/15 02:28:34;;;;;;;;;;;;;;;0.11;66.81;101669.13;5054716;28;19912;-37
2022/03/15 02:31:00;;;;;;;;;;;;;;;0.17;67.78;101674.00;5054416;28;20280;-37
2022/03/15 02:33:25;;;;;;;;;;;;;;;0.16;67.46;101677.59;5054396;28;20315;-37
2022/03/15 02:35:50;;;;;;;;;;;;;;;0.12;67.73;101683.94;5054160;28;19917;-36
2022/03/15 02:38:15;;;;;;;;;;;;;;;0.44;66.65;101684.69;5054276;28;19909;-36
2022/03/15 02:40:41;;;;;;;;;;;;;;;0.12;66.52;101699.63;5054387;28;20007;-37
2022/03/15 02:43:06;;;;;;;;;;;;;;;0.15;66.72;101691.59;5054405;28;19965;-37
2022/03/15 02:45:31;;;;;;;;;;;;;;;-0.03;67.05;101689.09;5054439;28;19909;-37
2022/03/15 02:47:56;;;;;;;;;;;;;;;-0.06;66.69;101693.66;5054291;28;20010;-37
2022/03/15 02:50:22;;;;;;;;;;;;;;;-0.12;67.52;101688.78;5060517;28;19908;-37
2022/03/15 02:52:48;;;;;;;;;;;;;;;-0.08;66.84;101693.75;5074439;28;19909;-37
2022/03/15 02:55:13;;;;;;;;;;;;;;;-0.07;67.00;101689.38;5074172;28;20368;-37
2022/03/15 02:57:40;;;;;;;;;;;;;;;0.12;66.43;101686.53;5074284;28;19912;-37
2022/03/15 03:00:05;;;;;;;;;;;;;;;0.14;67.40;101676.81;5073922;28;19908;-37
2022/03/15 03:02:32;;;;;;;;;;;;;;;0.09;66.91;101682.31;5074020;28;19973;-38
2022/03/15 03:04:57;;;;;;;;;;;;;;;-0.10;67.45;101679.91;5073986;28;19932;-37
2022/03/15 03:07:22;;;;;;;;;;;;;;;-0.10;67.54;101672.03;5073171;28;19939;-37
2022/03/15 03:09:48;;;;;;;;;;;;;;;-0.17;67.57;101673.34;5073737;28;20383;-37
2022/03/15 03:12:15;;;;;;;;;;;;;;;-0.25;68.15;101673.78;5073347;28;19913;-37
2022/03/15 03:14:40;;;;;;;;;;;;;;;-0.18;67.94;101669.03;5073645;28;19943;-37
2022/03/15 03:17:06;;;;;;;;;;;;;;;-0.07;67.32;101671.88;5073828;28;19963;-36
2022/03/15 03:19:32;;;;;;;;;;;;;;;-0.08;67.34;101661.50;5073791;28;20436;-37
2022/03/15 03:21:59;;;;;;;;;;;;;;;-0.27;67.41;101653.84;5073717;28;19909;-37
2022/03/15 03:24:24;;;;;;;;;;;;;;;-0.08;67.42;101649.25;5055858;28;19969;-37
2022/03/15 03:26:50;;;;;;;;;;;;;;;-0.09;66.99;101647.56;5053503;28;20000;-37
2022/03/15 03:29:16;;;;;;;;;;;;;;;-0.15;66.29;101653.16;5053553;28;19908;-37
2022/03/15 03:31:42;;;;;;;;;;;;;;;-0.10;66.96;101651.09;5053175;28;19913;-37
2022/03/15 03:34:08;;;;;;;;;;;;;;;-0.25;66.49;101652.84;5052997;28;19908;-37
2022/03/15 03:36:36;;;;;;;;;;;;;;;-0.21;67.88;101643.03;5053330;28;20027;-37
2022/03/15 03:39:02;;;;;;;;;;;;;;;-0.24;67.24;101638.81;5053269;28;19908;-37
2022/03/15 03:41:27;;;;;;;;;;;;;;;-0.23;67.52;101643.13;5053179;28;20329;-37
2022/03/15 03:43:52;;;;;;;;;;;;;;;-0.46;67.99;101633.97;5052900;28;19909;-36
2022/03/15 03:46:18;;;;;;;;;;;;;;;-0.13;66.64;101640.84;5052840;28;19915;-36
2022/03/15 03:48:44;;;;;;;;;;;;;;;0.08;66.75;101641.38;5052954;28;19995;-36
2022/03/15 03:51:10;;;;;;;;;;;;;;;-0.02;67.07;101635.81;5053104;28;20365;-36
2022/03/15 03:53:36;;;;;;;;;;;;;;;-0.10;66.97;101632.78;5053003;28;19950;-36
2022/03/15 03:56:01;;;;;;;;;;;;;;;-0.15;66.97;101628.75;5053150;28;19940;-37
2022/03/15 03:58:26;;;;;;;;;;;;;;;-0.27;66.98;101625.91;5053106;28;19916;-37
2022/03/15 04:00:52;;;;;;;;;;;;;;;-0.13;66.67;101629.50;5052098;28;19986;-37
2022/03/15 04:03:17;;;;;;;;;;;;;;;-0.27;67.53;101630.28;5052521;28;20007;-37
2022/03/15 04:05:44;;;;;;;;;;;;;;;-0.07;66.99;101629.16;5051883;28;19978;-37
2022/03/15 04:08:12;;;;;;;;;;;;;;;0.10;66.55;101629.03;5052304;28;19943;-37
2022/03/15 04:10:37;;;;;;;;;;;;;;;-0.06;66.56;101626.47;5052591;28;19915;-37
2022/03/15 04:13:04;;;;;;;;;;;;;;;0.27;66.17;101627.22;5052250;28;19908;-37
2022/03/15 04:15:32;;;;;;;;;;;;;;;0.19;66.25;101617.16;5052254;28;19916;-36
2022/03/15 04:17:57;;;;;;;;;;;;;;;0.47;68.39;101623.38;5051966;28;19913;-36
2022/03/15 04:20:22;;;;;;;;;;;;;;;0.51;66.97;101630.13;5052008;28;19970;-36
2022/03/15 04:22:48;;;;;;;;;;;;;;;0.34;67.48;101620.66;5052123;28;20277;-36
2022/03/15 04:25:14;;;;;;;;;;;;;;;0.13;67.44;101614.91;5051870;28;19921;-36
2022/03/15 04:27:39;;;;;;;;;;;;;;;0.02;67.88;101614.69;5052167;28;19970;-36
2022/03/15 04:30:05;;;;;;;;;;;;;;;0.02;67.08;101601.59;5051915;28;20028;-36
2022/03/15 04:32:31;;;;;;;;;;;;;;;-0.10;67.59;101622.31;5051864;28;19909;-37
2022/03/15 04:34:56;;;;;;;;;;;;;;;-0.18;68.10;101627.16;5050886;28;20027;-37
2022/03/15 04:37:23;;;;;;;;;;;;;;;-0.48;67.74;101633.19;5050219;28;19916;-36
2022/03/15 04:39:49;;;;;;;;;;;;;;;-0.38;71.04;101630.06;5050735;28;19908;-37
2022/03/15 04:42:14;;;;;;;;;;;;;;;-0.33;68.53;101620.19;5050508;28;20020;-36
2022/03/15 04:44:40;;;;;;;;;;;;;;;-0.15;68.90;101629.63;5050629;28;19917;-36
2022/03/15 04:47:05;;;;;;;;;;;;;;;0.04;68.19;101623.28;5048076;28;20392;-37
2022/03/15 04:49:31;;;;;;;;;;;;;;;0.15;68.90;101623.50;5051547;28;19974;-36
2022/03/15 04:51:57;;;;;;;;;;;;;;;0.21;68.82;101623.16;5071271;28;19915;-37
2022/03/15 04:54:22;;;;;;;;;;;;;;;0.11;67.92;101622.00;5071752;28;19908;-36
2022/03/15 04:56:47;;;;;;;;;;;;;;;0.38;66.17;101622.16;5071791;28;19920;-36
2022/03/15 04:59:12;;;;;;;;;;;;;;;0.39;65.22;101621.22;5071701;28;19915;-36
2022/03/15 05:01:38;;;;;;;;;;;;;;;0.46;65.80;101626.94;5069776;28;20357;-37
2022/03/15 05:04:03;;;;;;;;;;;;;;;0.40;66.05;101628.16;5071771;28;19912;-37
2022/03/15 05:06:29;;;;;;;;;;;;;;;0.47;65.16;101639.09;5071768;28;19908;-36
2022/03/15 05:08:54;;;;;;;;;;;;;;;0.44;65.80;101634.03;5071770;28;20324;-36
2022/03/15 05:11:20;;;;;;;;;;;;;;;0.65;64.88;101631.91;5071484;28;19909;-36
2022/03/15 05:13:47;;;;;;;;;;;;;;;1.01;64.13;101636.69;5071740;28;19908;-36
2022/03/15 05:16:15;;;;;;;;;;;;;;;1.25;62.87;101633.47;5061956;28;19917;-37
2022/03/15 05:18:41;;;;;;;;;;;;;;;1.60;61.51;101648.72;5051603;28;19997;-38
2022/03/15 05:21:09;;;;;;;;;;;;;;;1.77;60.51;101643.22;5051763;28;19963;-38
2022/03/15 05:23:34;;;;;;;;;;;;;;;1.68;61.02;101646.47;5051586;28;20308;-37
2022/03/15 05:26:00;;;;;;;;;;;;;;;1.89;60.41;101657.38;5063234;28;19916;-38
2022/03/15 05:28:25;;;;;;;;;;;;;;;2.27;59.08;101653.97;5071312;28;19916;-37
2022/03/15 05:30:51;;;;;;;;;;;;;;;2.47;57.44;101669.22;5074402;28;19912;-35
2022/03/15 05:33:16;;;;;;;;;;;;;;;2.74;57.36;101661.25;5075756;28;20341;-37
2022/03/15 05:35:41;;;;;;;;;;;;;;;2.88;56.86;101680.50;5075216;28;20292;-36
2022/03/15 05:38:07;;;;;;;;;;;;;;;3.02;55.80;101682.19;5075219;28;19913;-37
2022/03/15 05:40:32;;;;;;;;;;;;;;;3.19;54.93;101670.47;5075041;28;19908;-37
2022/03/15 05:42:58;;;;;;;;;;;;;;;3.64;55.21;101670.78;5074978;28;19952;-37
2022/03/15 05:45:25;;;;;;;;;;;;;;;5.07;53.95;101670.53;5074877;28;19920;-37
2022/03/15 05:47:50;;;;;;;;;;;;;;;5.56;51.84;101660.50;5075017;28;19919;-36
2022/03/15 05:50:16;;;;;;;;;;;;;;;5.58;52.42;101671.78;5074780;28;19908;-40
2022/03/15 05:52:41;;;;;;;;;;;;;;;5.31;50.67;101667.75;5074247;28;19908;-38
2022/03/15 05:55:07;;;;;;;;;;;;;;;5.17;50.45;101671.47;5074540;28;19908;-38
2022/03/15 05:57:32;;;;;;;;;;;;;;;5.27;50.21;101671.59;5073905;28;20336;-37
2022/03/15 05:59:57;;;;;;;;;;;;;;;5.99;48.74;101670.25;5056214;28;19908;-37
2022/03/15 06:02:23;;;;;;;;;;;;;;;5.60;49.30;101677.81;5074573;28;19916;-37
2022/03/15 06:04:48;;;;;;;;;;;;;;;5.65;48.87;101679.09;5065610;28;19909;-36
2022/03/15 06:07:13;;;;;;;;;;;;;;;5.74;48.78;101679.31;5046588;28;20399;-39
2022/03/15 06:09:39;;;;;;;;;;;;;;;5.70;48.16;101677.88;5054928;28;19908;-37
2022/03/15 06:12:04;;;;;;;;;;;;;;;5.38;48.24;101671.56;5054655;28;19915;-37
2022/03/15 06:14:30;;;;;;;;;;;;;;;5.52;49.18;101677.56;5054176;28;19916;-37
2022/03/15 06:16:55;;;;;;;;;;;;;;;5.23;49.32;101680.72;5036783;28;19932;-37
2022/03/15 06:19:20;;;;;;;;;;;;;;;6.11;47.07;101685.09;5033965;28;20069;-37
2022/03/15 06:21:46;;;;;;;;;;;;;;;6.88;44.14;101683.91;5032876;28;19920;-37
2022/03/15 06:24:11;;;;;;;;;;;;;;;6.76;44.58;101680.53;5031784;28;19913;-37
2022/03/15 06:26:38;;;;;;;;;;;;;;;6.45;45.57;101671.69;5031874;28;19982;-36
2022/03/15 06:29:04;;;;;;;;;;;;;;;6.70;44.73;101669.59;5031998;28;19935;-38
2022/03/15 06:31:33;;;;;;;;;;;;;;;6.93;44.45;101663.19;5031996;28;19909;-37
2022/03/15 06:33:58;;;;;;;;;;;;;;;6.98;43.93;101663.63;5031850;28;20459;-37
2022/03/15 06:36:24;;;;;;;;;;;;;;;7.74;43.04;101663.13;5031888;28;20011;-37
2022/03/15 06:38:49;;;;;;;;;;;;;;;8.68;40.35;101664.31;5031620;28;19909;-38
2022/03/15 06:41:15;;;;;;;;;;;;;;;8.29;40.79;101661.72;5030422;28;19909;-37
2022/03/15 06:43:40;;;;;;;;;;;;;;;7.93;40.80;101654.34;5031840;28;19999;-37
2022/03/15 06:46:06;;;;;;;;;;;;;;;7.68;41.65;101661.03;5032834;28;19913;-37
2022/03/15 06:48:31;;;;;;;;;;;;;;;7.52;42.80;101666.00;5033380;28;20383;-37
2022/03/15 06:50:57;;;;;;;;;;;;;;;7.83;41.59;101661.47;5055710;28;20498;-37
2022/03/15 06:53:22;;;;;;;;;;;;;;;7.44;41.31;101677.28;5073036;28;19965;-37
2022/03/15 06:55:47;;;;;;;;;;;;;;;7.16;42.06;101678.88;5072737;28;20236;-38
2022/03/15 06:58:13;;;;;;;;;;;;;;;7.35;41.78;101678.94;5073211;28;19919;-37
2022/03/15 07:00:38;;;;;;;;;;;;;;;7.54;41.60;101674.66;5073151;28;19915;-37
2022/03/15 07:03:05;;;;;;;;;;;;;;;8.15;40.73;101669.13;5072908;28;19912;-40
2022/03/15 07:05:30;;;;;;;;;;;;;;;8.33;39.96;101666.59;5073284;28;20017;-38
2022/03/15 07:07:55;;;;;;;;;;;;;;;8.65;39.63;101659.31;5073039;28;20439;-38
2022/03/15 07:10:20;;;;;;;;;;;;;;;8.73;39.42;101656.75;5072971;28;19908;-38
2022/03/15 07:12:46;;;;;;;;;;;;;;;8.77;39.76;101666.09;5072958;28;19908;-38
2022/03/15 07:15:12;;;;;;;;;;;;;;;8.98;39.65;101664.06;5070022;28;20012;-38
2022/03/15 07:17:38;;;;;;;;;;;;;;;9.30;38.97;101667.28;5052548;28;19999;-37
2022/03/15 07:20:04;;;;;;;;;;;;;;;9.50;38.31;101670.66;5052985;28;19909;-37
2022/03/15 07:22:29;;;;;;;;;;;;;;;9.68;37.58;101670.69;5052758;28;19912;-38
2022/03/15 07:24:54;;;;;;;;;;;;;;;10.08;37.93;101664.09;5052607;28;19929;-37
2022/03/15 07:27:20;;;;;;;;;;;;;;;10.26;37.02;101670.22;5052117;28;19908;-38
2022/03/15 07:29:46;;;;;;;;;;;;;;;10.21;37.36;101666.38;5052965;28;20060;-37
2022/03/15 07:32:11;;;;;;;;;;;;;;;10.71;35.88;101671.06;5052474;28;19909;-37
2022/03/15 07:34:36;;;;;;;;;;;;;;;10.66;36.29;101674.19;5052338;28;19915;-37
2022/03/15 07:37:02;;;;;;;;;;;;;;;10.41;36.05;101681.16;5052361;28;19920;-37
2022/03/15 07:39:27;;;;;;;;;;;;;;;10.83;35.48;101676.94;5052298;28;20272;-37
2022/03/15 07:41:53;;;;;;;;;;;;;;;11.41;34.58;101670.06;5052755;28;19932;-37
2022/03/15 07:44:19;;;;;;;;;;;;;;;11.33;34.79;101661.03;5052592;28;19914;-37
2022/03/15 07:46:48;;;;;;;;;;;;;;;11.02;35.38;101641.25;5052221;28;19978;-37
2022/03/15 07:49:17;;;;;;;;;;;;;;;11.53;33.99;101666.06;5052248;28;19909;-37
2022/03/15 07:51:43;;;;;;;;;;;;;;;11.52;32.90;101662.59;5052254;28;19909;-37
2022/03/15 07:54:08;;;;;;;;;;;;;;;11.77;32.11;101664.47;5051837;28;19908;-37
2022/03/15 07:56:33;;;;;;;;;;;;;;;11.89;31.85;101665.81;5052539;28;19982;-38
2022/03/15 07:58:59;;;;;;;;;;;;;;;11.58;33.96;101661.09;5052056;28;20387;-38
2022/03/15 08:01:24;;;;;;;;;;;;;;;11.65;32.55;101659.44;5051848;28;20030;-37
2022/03/15 08:03:49;;;;;;;;;;;;;;;11.96;32.00;101663.34;5051982;28;20005;-38
2022/03/15 08:06:15;;;;;;;;;;;;;;;11.92;30.94;101666.34;5052308;28;20371;-37
2022/03/15 08:08:42;;;;;;;;;;;;;;;12.01;31.36;101655.66;5051893;28;19913;-37
2022/03/15 08:11:07;;;;;;;;;;;;;;;11.50;32.78;101655.75;5052148;28;19908;-37
2022/03/15 08:13:34;;;;;;;;;;;;;;;11.42;31.94;101650.38;5051755;28;19909;-37
2022/03/15 08:15:59;;;;;;;;;;;;;;;11.85;32.22;101645.81;5051887;28;20245;-37
2022/03/15 08:18:25;;;;;;;;;;;;;;;12.12;32.28;101644.66;5051620;28;20398;-38
2022/03/15 08:20:50;;;;;;;;;;;;;;;12.37;32.07;101648.16;5051435;28;19909;-36
2022/03/15 08:23:17;;;;;;;;;;;;;;;12.50;31.44;101645.78;5051197;28;19920;-36
2022/03/15 08:25:42;;;;;;;;;;;;;;;12.48;30.95;101649.63;5051708;28;19990;-38
2022/03/15 08:28:07;;;;;;;;;;;;;;;12.54;31.78;101648.13;5051727;28;20293;-38
2022/03/15 08:30:33;;;;;;;;;;;;;;;12.75;30.77;101643.06;5051767;28;19996;-38
2022/03/15 08:32:58;;;;;;;;;;;;;;;12.91;30.19;101640.34;5051735;28;19920;-38
2022/03/15 08:35:24;;;;;;;;;;;;;;;12.93;29.71;101636.66;5051567;28;20023;-37
2022/03/15 08:37:52;;;;;;;;;;;;;;;12.73;30.75;101642.41;5051163;28;20498;-38
2022/03/15 08:40:18;;;;;;;;;;;;;;;13.03;30.30;101638.13;5051313;28;20007;-38
2022/03/15 08:42:43;;;;;;;;;;;;;;;13.18;29.82;101635.56;5051186;28;20002;-38
2022/03/15 08:45:09;;;;;;;;;;;;;;;12.62;31.15;101632.94;5051571;28;19909;-37
2022/03/15 08:47:35;;;;;;;;;;;;;;;12.65;30.59;101637.09;5051542;28;19916;-37
2022/03/15 08:50:00;;;;;;;;;;;;;;;12.00;31.28;101638.84;5051234;28;19909;-37
2022/03/15 08:52:25;;;;;;;;;;;;;;;12.08;31.13;101633.47;5051261;28;20292;-37
2022/03/15 08:54:50;;;;;;;;;;;;;;;12.12;31.60;101626.81;5051171;28;19908;-37
2022/03/15 08:57:17;;;;;;;;;;;;;;;12.40;31.06;101626.47;5051209;28;19951;-38
2022/03/15 08:59:42;;;;;;;;;;;;;;;12.77;31.08;101626.88;5050771;28;19936;-38
2022/03/15 09:02:12;;;;;;;;;;;;;;;12.63;30.38;101615.06;5050507;28;20006;-38
2022/03/15 09:04:37;;;;;;;;;;;;;;;13.09;30.80;101609.88;5050446;28;20004;-38
2022/03/15 09:07:02;;;;;;;;;;;;;;;13.57;29.29;101610.59;5051147;28;20377;-38
2022/03/15 09:09:28;;;;;;;;;;;;;;;13.73;29.05;101598.97;5051283;28;19908;-38
2022/03/15 09:11:53;;;;;;;;;;;;;;;13.73;29.10;101598.13;5050922;28;20300;-38
2022/03/15 09:14:19;;;;;;;;;;;;;;;13.46;29.04;101598.50;5051148;28;19917;-37
2022/03/15 09:16:44;;;;;;;;;;;;;;;13.47;29.25;101596.66;5033039;28;20403;-37
2022/03/15 09:19:11;;;;;;;;;;;;;;;13.08;29.34;101592.19;5050734;28;19908;-36
2022/03/15 09:21:36;;;;;;;;;;;;;;;12.79;29.92;101582.94;5050660;28;19966;-38
2022/03/15 09:24:02;;;;;;;;;;;;;;;13.22;29.43;101587.91;5050893;28;19917;-37
2022/03/15 09:26:27;;;;;;;;;;;;;;;13.47;28.71;101588.63;5050464;28;19917;-38
2022/03/15 09:28:53;;;;;;;;;;;;;;;13.78;28.24;101585.06;5050709;28;19908;-37
2022/03/15 09:31:20;;;;;;;;;;;;;;;13.14;28.96;101582.63;5050770;28;20022;-39
2022/03/15 09:33:45;;;;;;;;;;;;;;;13.37;30.29;101578.16;5050679;28;19913;-38
2022/03/15 09:36:11;;;;;;;;;;;;;;;13.37;29.90;101577.34;5050639;28;19908;-38
2022/03/15 09:38:37;;;;;;;;;;;;;;;13.61;28.67;101571.81;5050768;28;19908;-38
2022/03/15 09:41:04;;;;;;;;;;;;;;;13.63;29.48;101564.44;5050271;28;19908;-38
2022/03/15 09:43:34;;;;;;;;;;;;;;;14.22;27.21;101565.56;5050864;28;19989;-38
2022/03/15 09:46:00;;;;;;;;;;;;;;;13.54;27.99;101545.97;5050716;28;19915;-37
2022/03/15 09:48:26;;;;;;;;;;;;;;;13.49;28.68;101539.28;5050821;28;19908;-37
2022/03/15 09:50:52;;;;;;;;;;;;;;;13.25;28.49;101540.28;5050633;28;19992;-38
2022/03/15 09:53:18;;;;;;;;;;;;;;;13.56;28.07;101531.41;5050616;28;20368;-38
2022/03/15 09:55:45;;;;;;;;;;;;;;;13.11;28.72;101522.31;5050598;28;19908;-38
2022/03/15 09:58:20;;;;;;;;;;;;;;;13.21;28.85;101514.91;5050457;28;19970;-41
2022/03/15 10:00:49;;;;;;;;;;;;;;;12.81;28.59;101511.50;5050888;28;19912;-38
2022/03/15 10:03:15;;;;;;;;;;;;;;;12.78;29.30;101506.47;5050543;28;19913;-38
2022/03/15 10:05:40;;;;;;;;;;;;;;;13.05;29.26;101507.81;5050663;28;19994;-37
2022/03/15 10:08:07;;;;;;;;;;;;;;;13.40;28.26;101508.28;5050559;28;19908;-37
2022/03/15 10:10:32;;;;;;;;;;;;;;;13.46;28.03;101498.69;5050793;28;20440;-38
2022/03/15 10:12:57;;;;;;;;;;;;;;;13.35;28.17;101491.94;5050757;28;19943;-37
2022/03/15 10:15:25;;;;;;;;;;;;;;;12.57;30.10;101491.06;5050880;28;20008;-38
2022/03/15 10:17:52;;;;;;;;;;;;;;;12.92;29.14;101486.19;5054529;28;20082;-37
2022/03/15 10:20:21;;;;;;;;;;;;;;;12.78;28.89;101484.28;5054590;28;20304;-37
2022/03/15 10:23:00;;;;;;;;;;;;;;;12.41;29.76;101486.59;5054039;28;19951;-38
2022/03/15 10:25:27;;;;;;;;;;;;;;;12.81;28.63;101482.09;5054063;28;19930;-38
2022/03/15 10:27:57;;;;;;;;;;;;;;;12.89;28.93;101479.38;5053963;28;19925;-38
2022/03/15 10:30:23;;;;;;;;;;;;;;;13.32;28.33;101464.72;5053657;28;20384;-38
2022/03/15 10:32:48;;;;;;;;;;;;;;;13.55;28.09;101462.84;5053660;28;19948;-38
2022/03/15 10:35:17;;;;;;;;;;;;;;;13.87;27.63;101464.38;5053824;28;19916;-38
2022/03/15 10:37:42;;;;;;;;;;;;;;;13.63;28.01;101454.78;5053611;28;20010;-38
2022/03/15 10:40:08;;;;;;;;;;;;;;;13.96;27.43;101457.09;5054078;28;20415;-37
2022/03/15 10:42:41;;;;;;;;;;;;;;;14.18;28.20;101451.81;5053509;28;20333;-37
2022/03/15 10:45:19;;;;;;;;;;;;;;;14.54;27.80;101445.69;5053355;28;19977;-37
2022/03/15 10:47:52;;;;;;;;;;;;;;;14.71;26.59;101433.75;5053670;28;20062;-38
2022/03/15 10:50:18;;;;;;;;;;;;;;;14.48;26.28;101433.88;5059284;28;19908;-38
2022/03/15 10:52:45;;;;;;;;;;;;;;;14.40;26.61;101429.47;5073459;28;19976;-38
2022/03/15 10:55:19;;;;;;;;;;;;;;;14.46;26.54;101420.66;5073258;28;19912;-37
2022/03/15 10:57:51;;;;;;;;;;;;;;;14.99;25.62;101415.06;5073485;28;19935;-37
2022/03/15 11:00:17;;;;;;;;;;;;;;;14.89;25.40;101405.69;5073401;28;20366;-38
2022/03/15 11:02:43;;;;;;;;;;;;;;;14.48;26.78;101407.09;5073111;28;20399;-38
2022/03/15 11:05:08;;;;;;;;;;;;;;;14.81;25.48;101396.78;5073127;28;19908;-38
2022/03/15 11:07:40;;;;;;;;;;;;;;;14.61;25.54;101393.06;5073149;28;19915;-38
2022/03/15 11:10:13;;;;;;;;;;;;;;;14.63;26.05;101394.50;5054588;28;19913;-37
2022/03/15 11:12:52;;;;;;;;;;;;;;;14.49;26.49;101381.97;5053259;28;19962;-37
2022/03/15 11:15:19;;;;;;;;;;;;;;;14.46;25.62;101372.44;5053063;28;19947;-38
2022/03/15 11:17:45;;;;;;;;;;;;;;;15.33;23.67;101367.09;5053308;28;19999;-38
2022/03/15 11:20:11;;;;;;;;;;;;;;;15.17;24.33;101355.66;5052950;28;19913;-38
2022/03/15 11:22:36;;;;;;;;;;;;;;;15.12;24.39;101352.72;5052798;28;20508;-38
2022/03/15 11:25:28;;;;;;;;;;;;;;;15.67;24.24;101349.34;5056893;28;19942;-39
2022/03/15 11:27:54;;;;;;;;;;;;;;;16.71;23.55;101343.72;5067004;28;19912;-38
2022/03/15 11:30:20;;;;;;;;;;;;;;;14.91;24.47;101342.00;5072684;28;20388;-36
2022/03/15 11:32:46;;;;;;;;;;;;;;;15.30;24.33;101335.28;5073084;28;19938;-38
2022/03/15 11:35:13;;;;;;;;;;;;;;;15.80;23.91;101336.03;5072882;28;20365;-38
2022/03/15 11:37:39;;;;;;;;;;;;;;;16.69;23.23;101324.28;5072633;28;19919;-38
2022/03/15 11:40:06;;;;;;;;;;;;;;;15.91;22.78;101318.53;5072725;28;19934;-37
2022/03/15 11:42:32;;;;;;;;;;;;;;;15.72;23.48;101312.84;5072399;28;19915;-41
2022/03/15 11:45:16;;;;;;;;;;;;;;;15.89;22.92;101307.97;5072753;28;19909;-37
2022/03/15 11:48:13;;;;;;;;;;;;;;;16.71;22.32;101306.09;5072997;28;19919;-37
2022/03/15 11:50:59;;;;;;;;;;;;;;;16.16;22.21;101303.56;5008083;28;20378;-38
2022/03/15 11:53:45;;;;;;;;;;;;;;;15.80;22.19;101293.94;5052645;28;19916;-38
2022/03/15 11:56:10;;;;;;;;;;;;;;;17.17;21.01;101294.53;5052546;28;19955;-38
2022/03/15 11:58:36;;;;;;;;;;;;;;;16.91;21.36;101286.50;5052040;28;20381;-38
2022/03/15 12:01:09;;;;;;;;;;;;;;;16.37;21.63;101288.28;5052298;28;19916;-38
2022/03/15 12:03:43;;;;;;;;;;;;;;;16.09;21.79;101270.47;5052033;28;20339;-39
2022/03/15 12:06:15;;;;;;;;;;;;;;;17.05;20.79;101269.31;5052370;28;20127;-38
2022/03/15 12:08:41;;;;;;;;;;;;;;;16.66;21.10;101264.75;5058356;28;19912;-43
2022/03/15 12:11:06;;;;;;;;;;;;;;;15.89;21.83;101256.97;5071888;28;19908;-39
2022/03/15 12:13:39;;;;;;;;;;;;;;;15.98;20.93;101257.63;5071949;28;19916;-37
2022/03/15 12:16:11;;;;;;;;;;;;;;;16.87;20.18;101258.34;5057728;28;19938;-38
2022/03/15 12:19:01;;;;;;;;;;;;;;;16.57;20.65;101250.69;5035924;28;20004;-38
2022/03/15 12:21:27;;;;;;;;;;;;;;;16.17;20.68;101239.91;5040392;28;19913;-39
2022/03/15 12:23:53;;;;;;;;;;;;;;;15.79;20.73;101238.56;5051386;28;19919;-39
2022/03/15 12:26:28;;;;;;;;;;;;;;;16.52;20.88;101237.06;5051717;28;19917;-38
2022/03/15 12:29:14;;;;;;;;;;;;;;;16.18;22.08;101244.25;5052081;28;19959;-40
2022/03/15 12:31:44;;;;;;;;;;;;;;;16.40;21.52;101232.28;5051737;28;19916;-40
2022/03/15 12:34:11;;;;;;;;;;;;;;;17.56;20.85;101221.97;5052386;28;19958;-39
2022/03/15 12:37:08;;;;;;;;;;;;;;;16.46;20.62;101225.25;5052077;28;19919;-38